sensor_id;sensor_type;location;lat;lon;timestamp;P1;durP1;ratioP1;P2;durP2;ratioP2
14975;SDS011;7584;60.468;25.126;2022-09-30T00:01:20;4.03;;;2.30;;
14975;SDS011;7584;60.468;25.126;2022-09-30T00:03:45;2.77;;;2.07;;
14975;SDS011;7584;60.468;25.126;2022-09-30T00:06:13;2.97;;;2.03;;
14975;SDS011;7584;60.468;25.126;2022-09-30T00:08:38;2.70;;;2.10;;
14975;SDS011;7584;60.468;25.126;2022-09-30T00:11:08;4.87;;;2.00;;
14975;SDS011;7584;60.468;25.126;2022-09-30T00:13:34;3.23;;;1.80;;
14975;SDS011;7584;60.468;25.126;2022-09-30T00:16:00;5.13;;;2.30;;
14975;SDS011;7584;60.468;25.126;2022-09-30T00:18:28;2.87;;;1.97;;
14975;SDS011;7584;60.468;25.126;2022-09-30T00:20:54;2.90;;;2.23;;
14975;SDS011;7584;60.468;25.126;2022-09-30T00:23:19;4.07;;;2.27;;
14975;SDS011;7584;60.468;25.126;2022-09-30T00:25:45;4.07;;;2.07;;
14975;SDS011;7584;60.468;25.126;2022-09-30T00:28:10;3.93;;;1.83;;
14975;SDS011;7584;60.468;25.126;2022-09-30T00:30:35;2.67;;;2.23;;
14975;SDS011;7584;60.468;25.126;2022-09-30T00:33:01;4.70;;;2.17;;
14975;SDS011;7584;60.468;25.126;2022-09-30T00:35:26;3.03;;;2.10;;
14975;SDS011;7584;60.468;25.126;2022-09-30T00:37:51;2.53;;;2.10;;
14975;SDS011;7584;60.468;25.126;2022-09-30T00:40:18;2.40;;;1.77;;
14975;SDS011;7584;60.468;25.126;2022-09-30T00:42:43;2.47;;;1.70;;
14975;SDS011;7584;60.468;25.126;2022-09-30T00:45:10;2.63;;;2.03;;
14975;SDS011;7584;60.468;25.126;2022-09-30T00:47:50;3.03;;;2.10;;
14975;SDS011;7584;60.468;25.126;2022-09-30T00:53:38;2.90;;;1.97;;
14975;SDS011;7584;60.468;25.126;2022-09-30T00:55:39;4.13;;;2.13;;
14975;SDS011;7584;60.468;25.126;2022-09-30T00:58:07;4.77;;;2.00;;
14975;SDS011;7584;60.468;25.126;2022-09-30T01:00:33;3.07;;;2.10;;
14975;SDS011;7584;60.468;25.126;2022-09-30T01:02:59;4.90;;;2.37;;
14975;SDS011;7584;60.468;25.126;2022-09-30T01:05:25;3.63;;;2.53;;
14975;SDS011;7584;60.468;25.126;2022-09-30T01:07:52;4.17;;;2.00;;
14975;SDS011;7584;60.468;25.126;2022-09-30T01:10:17;3.57;;;2.70;;
14975;SDS011;7584;60.468;25.126;2022-09-30T01:12:43;5.60;;;2.97;;
14975;SDS011;7584;60.468;25.126;2022-09-30T01:15:08;4.50;;;2.70;;
14975;SDS011;7584;60.468;25.126;2022-09-30T01:17:48;4.17;;;2.70;;
14975;SDS011;7584;60.468;25.126;2022-09-30T01:20:26;4.40;;;2.40;;
14975;SDS011;7584;60.468;25.126;2022-09-30T01:46:16;6.07;;;2.80;;
14975;SDS011;7584;60.468;25.126;2022-09-30T01:48:56;4.30;;;2.83;;
14975;SDS011;7584;60.468;25.126;2022-09-30T01:57:27;3.03;;;2.40;;
14975;SDS011;7584;60.468;25.126;2022-09-30T01:59:56;4.07;;;2.07;;
14975;SDS011;7584;60.468;25.126;2022-09-30T02:02:27;2.83;;;2.07;;
14975;SDS011;7584;60.468;25.126;2022-09-30T02:04:54;3.67;;;2.37;;
14975;SDS011;7584;60.468;25.126;2022-09-30T02:07:23;3.37;;;2.30;;
14975;SDS011;7584;60.468;25.126;2022-09-30T02:10:00;4.70;;;2.20;;
14975;SDS011;7584;60.468;25.126;2022-09-30T02:12:28;2.27;;;1.93;;
14975;SDS011;7584;60.468;25.126;2022-09-30T02:14:58;5.30;;;2.20;;
14975;SDS011;7584;60.468;25.126;2022-09-30T02:17:27;3.97;;;2.07;;
14975;SDS011;7584;60.468;25.126;2022-09-30T02:20:02;5.50;;;2.20;;
14975;SDS011;7584;60.468;25.126;2022-09-30T02:25:22;3.30;;;2.37;;
14975;SDS011;7584;60.468;25.126;2022-09-30T02:27:55;4.17;;;2.67;;
14975;SDS011;7584;60.468;25.126;2022-09-30T02:30:22;6.23;;;2.67;;
14975;SDS011;7584;60.468;25.126;2022-09-30T02:32:48;2.90;;;2.03;;
14975;SDS011;7584;60.468;25.126;2022-09-30T02:35:26;2.63;;;2.37;;
14975;SDS011;7584;60.468;25.126;2022-09-30T02:37:54;3.77;;;2.23;;
14975;SDS011;7584;60.468;25.126;2022-09-30T02:42:49;4.57;;;2.03;;
14975;SDS011;7584;60.468;25.126;2022-09-30T02:45:17;2.97;;;2.07;;
14975;SDS011;7584;60.468;25.126;2022-09-30T02:47:48;2.63;;;2.23;;
14975;SDS011;7584;60.468;25.126;2022-09-30T02:50:27;2.30;;;2.10;;
14975;SDS011;7584;60.468;25.126;2022-09-30T03:00:26;4.37;;;2.40;;
14975;SDS011;7584;60.468;25.126;2022-09-30T03:03:02;2.30;;;2.00;;
14975;SDS011;7584;60.468;25.126;2022-09-30T03:05:29;4.70;;;2.23;;
14975;SDS011;7584;60.468;25.126;2022-09-30T03:07:54;2.60;;;2.10;;
14975;SDS011;7584;60.468;25.126;2022-09-30T03:10:20;2.87;;;2.23;;
14975;SDS011;7584;60.468;25.126;2022-09-30T03:12:53;3.00;;;2.20;;
14975;SDS011;7584;60.468;25.126;2022-09-30T03:20:51;2.47;;;2.00;;
14975;SDS011;7584;60.468;25.126;2022-09-30T03:33:52;4.27;;;2.30;;
14975;SDS011;7584;60.468;25.126;2022-09-30T03:38:48;3.23;;;2.23;;
14975;SDS011;7584;60.468;25.126;2022-09-30T03:46:29;2.47;;;2.03;;
14975;SDS011;7584;60.468;25.126;2022-09-30T03:48:57;6.13;;;3.10;;
14975;SDS011;7584;60.468;25.126;2022-09-30T03:51:24;5.87;;;2.93;;
14975;SDS011;7584;60.468;25.126;2022-09-30T03:53:50;3.37;;;2.10;;
14975;SDS011;7584;60.468;25.126;2022-09-30T03:56:27;3.80;;;2.27;;
14975;SDS011;7584;60.468;25.126;2022-09-30T03:58:52;3.87;;;2.57;;
14975;SDS011;7584;60.468;25.126;2022-09-30T04:01:18;2.50;;;2.13;;
14975;SDS011;7584;60.468;25.126;2022-09-30T04:03:45;2.90;;;2.30;;
14975;SDS011;7584;60.468;25.126;2022-09-30T04:06:11;3.57;;;2.60;;
14975;SDS011;7584;60.468;25.126;2022-09-30T04:08:37;2.33;;;2.13;;
14975;SDS011;7584;60.468;25.126;2022-09-30T04:11:02;3.93;;;2.63;;
14975;SDS011;7584;60.468;25.126;2022-09-30T04:13:27;4.70;;;2.50;;
14975;SDS011;7584;60.468;25.126;2022-09-30T04:15:53;3.27;;;2.53;;
14975;SDS011;7584;60.468;25.126;2022-09-30T04:18:19;3.27;;;2.40;;
14975;SDS011;7584;60.468;25.126;2022-09-30T04:20:44;5.30;;;2.80;;
14975;SDS011;7584;60.468;25.126;2022-09-30T04:23:09;3.80;;;3.00;;
14975;SDS011;7584;60.468;25.126;2022-09-30T04:25:34;5.30;;;2.33;;
14975;SDS011;7584;60.468;25.126;2022-09-30T04:28:00;4.60;;;2.90;;
14975;SDS011;7584;60.468;25.126;2022-09-30T04:30:25;3.60;;;2.73;;
14975;SDS011;7584;60.468;25.126;2022-09-30T04:32:50;6.03;;;2.90;;
14975;SDS011;7584;60.468;25.126;2022-09-30T04:35:16;5.13;;;2.70;;
14975;SDS011;7584;60.468;25.126;2022-09-30T04:37:42;2.73;;;2.37;;
14975;SDS011;7584;60.468;25.126;2022-09-30T04:40:07;3.20;;;2.73;;
14975;SDS011;7584;60.468;25.126;2022-09-30T04:42:34;3.57;;;2.57;;
14975;SDS011;7584;60.468;25.126;2022-09-30T04:45:00;3.80;;;2.77;;
14975;SDS011;7584;60.468;25.126;2022-09-30T04:47:25;4.83;;;2.90;;
14975;SDS011;7584;60.468;25.126;2022-09-30T04:49:51;4.10;;;3.13;;
14975;SDS011;7584;60.468;25.126;2022-09-30T04:52:16;5.60;;;3.07;;
14975;SDS011;7584;60.468;25.126;2022-09-30T04:54:41;4.17;;;3.10;;
14975;SDS011;7584;60.468;25.126;2022-09-30T04:57:06;5.47;;;3.70;;
14975;SDS011;7584;60.468;25.126;2022-09-30T04:59:32;3.87;;;3.10;;
14975;SDS011;7584;60.468;25.126;2022-09-30T05:01:57;5.63;;;2.90;;
14975;SDS011;7584;60.468;25.126;2022-09-30T05:04:23;4.27;;;2.80;;
14975;SDS011;7584;60.468;25.126;2022-09-30T05:06:48;4.83;;;3.13;;
14975;SDS011;7584;60.468;25.126;2022-09-30T05:09:14;7.73;;;4.10;;
14975;SDS011;7584;60.468;25.126;2022-09-30T05:11:39;8.90;;;4.70;;
14975;SDS011;7584;60.468;25.126;2022-09-30T05:14:06;7.17;;;3.83;;
14975;SDS011;7584;60.468;25.126;2022-09-30T05:16:33;6.73;;;3.17;;
14975;SDS011;7584;60.468;25.126;2022-09-30T05:18:58;3.97;;;2.83;;
14975;SDS011;7584;60.468;25.126;2022-09-30T05:21:24;4.27;;;3.00;;
14975;SDS011;7584;60.468;25.126;2022-09-30T05:23:49;6.43;;;3.00;;
14975;SDS011;7584;60.468;25.126;2022-09-30T05:26:14;10.43;;;4.03;;
14975;SDS011;7584;60.468;25.126;2022-09-30T05:28:40;7.57;;;3.33;;
14975;SDS011;7584;60.468;25.126;2022-09-30T05:31:05;6.00;;;3.30;;
14975;SDS011;7584;60.468;25.126;2022-09-30T05:33:31;9.53;;;4.23;;
14975;SDS011;7584;60.468;25.126;2022-09-30T05:36:00;14.27;;;5.40;;
14975;SDS011;7584;60.468;25.126;2022-09-30T05:38:26;7.57;;;3.20;;
14975;SDS011;7584;60.468;25.126;2022-09-30T05:40:52;5.67;;;3.10;;
14975;SDS011;7584;60.468;25.126;2022-09-30T05:43:18;8.73;;;3.10;;
14975;SDS011;7584;60.468;25.126;2022-09-30T05:45:50;23.83;;;6.63;;
14975;SDS011;7584;60.468;25.126;2022-09-30T05:48:16;7.17;;;3.30;;
14975;SDS011;7584;60.468;25.126;2022-09-30T05:50:41;8.87;;;4.50;;
14975;SDS011;7584;60.468;25.126;2022-09-30T05:53:06;7.53;;;3.50;;
14975;SDS011;7584;60.468;25.126;2022-09-30T05:55:32;6.37;;;4.10;;
14975;SDS011;7584;60.468;25.126;2022-09-30T05:57:57;4.20;;;2.20;;
14975;SDS011;7584;60.468;25.126;2022-09-30T06:00:22;2.43;;;1.93;;
14975;SDS011;7584;60.468;25.126;2022-09-30T06:02:49;3.83;;;2.00;;
14975;SDS011;7584;60.468;25.126;2022-09-30T06:05:15;3.90;;;2.37;;
14975;SDS011;7584;60.468;25.126;2022-09-30T06:07:40;5.13;;;3.17;;
14975;SDS011;7584;60.468;25.126;2022-09-30T06:10:06;3.10;;;2.13;;
14975;SDS011;7584;60.468;25.126;2022-09-30T06:12:36;2.87;;;2.13;;
14975;SDS011;7584;60.468;25.126;2022-09-30T06:15:02;3.43;;;2.30;;
14975;SDS011;7584;60.468;25.126;2022-09-30T06:17:28;2.87;;;2.30;;
14975;SDS011;7584;60.468;25.126;2022-09-30T06:19:53;9.13;;;3.70;;
14975;SDS011;7584;60.468;25.126;2022-09-30T06:22:18;7.30;;;3.90;;
14975;SDS011;7584;60.468;25.126;2022-09-30T06:24:44;2.80;;;2.30;;
14975;SDS011;7584;60.468;25.126;2022-09-30T06:27:09;3.70;;;2.40;;
14975;SDS011;7584;60.468;25.126;2022-09-30T06:29:35;4.50;;;2.83;;
14975;SDS011;7584;60.468;25.126;2022-09-30T06:32:00;6.57;;;2.43;;
14975;SDS011;7584;60.468;25.126;2022-09-30T06:34:26;4.03;;;2.67;;
14975;SDS011;7584;60.468;25.126;2022-09-30T06:36:51;5.93;;;3.27;;
14975;SDS011;7584;60.468;25.126;2022-09-30T06:39:18;6.83;;;2.70;;
14975;SDS011;7584;60.468;25.126;2022-09-30T06:41:43;3.60;;;2.50;;
14975;SDS011;7584;60.468;25.126;2022-09-30T06:44:09;4.40;;;2.33;;
14975;SDS011;7584;60.468;25.126;2022-09-30T06:46:34;7.43;;;2.50;;
14975;SDS011;7584;60.468;25.126;2022-09-30T06:49:00;4.27;;;2.80;;
14975;SDS011;7584;60.468;25.126;2022-09-30T06:51:25;6.13;;;2.80;;
14975;SDS011;7584;60.468;25.126;2022-09-30T06:53:51;3.20;;;2.60;;
14975;SDS011;7584;60.468;25.126;2022-09-30T06:56:17;3.80;;;2.80;;
14975;SDS011;7584;60.468;25.126;2022-09-30T06:58:43;5.37;;;3.33;;
14975;SDS011;7584;60.468;25.126;2022-09-30T07:01:09;5.47;;;3.53;;
14975;SDS011;7584;60.468;25.126;2022-09-30T07:03:37;5.93;;;3.70;;
14975;SDS011;7584;60.468;25.126;2022-09-30T07:06:03;4.97;;;3.03;;
14975;SDS011;7584;60.468;25.126;2022-09-30T07:08:29;3.50;;;3.20;;
14975;SDS011;7584;60.468;25.126;2022-09-30T07:10:59;5.17;;;3.60;;
14975;SDS011;7584;60.468;25.126;2022-09-30T07:13:25;3.77;;;2.87;;
14975;SDS011;7584;60.468;25.126;2022-09-30T07:15:50;3.87;;;2.90;;
14975;SDS011;7584;60.468;25.126;2022-09-30T07:18:23;4.10;;;2.90;;
14975;SDS011;7584;60.468;25.126;2022-09-30T07:20:52;5.77;;;4.37;;
14975;SDS011;7584;60.468;25.126;2022-09-30T07:23:17;4.37;;;3.40;;
14975;SDS011;7584;60.468;25.126;2022-09-30T07:25:50;3.80;;;3.20;;
14975;SDS011;7584;60.468;25.126;2022-09-30T07:28:16;3.67;;;2.57;;
14975;SDS011;7584;60.468;25.126;2022-09-30T07:30:41;3.77;;;2.90;;
14975;SDS011;7584;60.468;25.126;2022-09-30T07:33:07;4.73;;;3.00;;
14975;SDS011;7584;60.468;25.126;2022-09-30T07:35:33;3.97;;;3.00;;
14975;SDS011;7584;60.468;25.126;2022-09-30T07:37:58;2.77;;;2.30;;
14975;SDS011;7584;60.468;25.126;2022-09-30T07:40:24;2.90;;;2.60;;
14975;SDS011;7584;60.468;25.126;2022-09-30T07:42:55;3.43;;;2.50;;
14975;SDS011;7584;60.468;25.126;2022-09-30T07:45:21;3.20;;;2.60;;
14975;SDS011;7584;60.468;25.126;2022-09-30T07:47:47;2.13;;;1.93;;
14975;SDS011;7584;60.468;25.126;2022-09-30T07:50:12;3.27;;;2.20;;
14975;SDS011;7584;60.468;25.126;2022-09-30T07:52:39;2.10;;;1.87;;
14975;SDS011;7584;60.468;25.126;2022-09-30T07:55:04;2.43;;;2.23;;
14975;SDS011;7584;60.468;25.126;2022-09-30T07:57:30;2.00;;;1.67;;
14975;SDS011;7584;60.468;25.126;2022-09-30T07:59:55;2.40;;;1.83;;
14975;SDS011;7584;60.468;25.126;2022-09-30T08:02:20;1.90;;;1.77;;
14975;SDS011;7584;60.468;25.126;2022-09-30T08:04:46;1.63;;;1.53;;
14975;SDS011;7584;60.468;25.126;2022-09-30T08:07:12;1.90;;;1.70;;
14975;SDS011;7584;60.468;25.126;2022-09-30T08:09:37;1.43;;;1.33;;
14975;SDS011;7584;60.468;25.126;2022-09-30T08:12:03;1.47;;;1.37;;
14975;SDS011;7584;60.468;25.126;2022-09-30T08:14:29;1.93;;;1.27;;
14975;SDS011;7584;60.468;25.126;2022-09-30T08:16:54;1.93;;;1.40;;
14975;SDS011;7584;60.468;25.126;2022-09-30T08:19:22;1.83;;;1.33;;
14975;SDS011;7584;60.468;25.126;2022-09-30T08:21:48;1.60;;;1.20;;
14975;SDS011;7584;60.468;25.126;2022-09-30T08:24:14;1.30;;;1.20;;
14975;SDS011;7584;60.468;25.126;2022-09-30T08:26:39;1.40;;;1.30;;
14975;SDS011;7584;60.468;25.126;2022-09-30T08:29:05;4.00;;;1.23;;
14975;SDS011;7584;60.468;25.126;2022-09-30T08:31:31;1.60;;;1.30;;
14975;SDS011;7584;60.468;25.126;2022-09-30T08:33:57;1.33;;;1.23;;
14975;SDS011;7584;60.468;25.126;2022-09-30T08:36:23;1.40;;;1.30;;
14975;SDS011;7584;60.468;25.126;2022-09-30T08:38:49;1.10;;;1.00;;
14975;SDS011;7584;60.468;25.126;2022-09-30T08:43:53;2.53;;;1.33;;
14975;SDS011;7584;60.468;25.126;2022-09-30T08:49:27;1.17;;;1.03;;
14975;SDS011;7584;60.468;25.126;2022-09-30T08:51:54;1.20;;;1.10;;
14975;SDS011;7584;60.468;25.126;2022-09-30T08:54:22;1.93;;;1.20;;
14975;SDS011;7584;60.468;25.126;2022-09-30T08:56:48;1.73;;;1.30;;
14975;SDS011;7584;60.468;25.126;2022-09-30T08:59:48;2.37;;;1.57;;
14975;SDS011;7584;60.468;25.126;2022-09-30T09:02:20;1.43;;;1.20;;
14975;SDS011;7584;60.468;25.126;2022-09-30T09:04:47;1.60;;;1.47;;
14975;SDS011;7584;60.468;25.126;2022-09-30T09:07:16;1.40;;;1.30;;
14975;SDS011;7584;60.468;25.126;2022-09-30T09:09:55;1.93;;;1.20;;
14975;SDS011;7584;60.468;25.126;2022-09-30T09:20:32;1.73;;;1.20;;
14975;SDS011;7584;60.468;25.126;2022-09-30T09:23:03;1.47;;;0.93;;
14975;SDS011;7584;60.468;25.126;2022-09-30T09:25:32;1.20;;;1.10;;
14975;SDS011;7584;60.468;25.126;2022-09-30T09:28:02;1.60;;;1.40;;
14975;SDS011;7584;60.468;25.126;2022-09-30T09:30:29;2.13;;;1.10;;
14975;SDS011;7584;60.468;25.126;2022-09-30T09:33:01;0.90;;;0.80;;
14975;SDS011;7584;60.468;25.126;2022-09-30T09:40:56;1.10;;;1.00;;
14975;SDS011;7584;60.468;25.126;2022-09-30T09:48:33;1.20;;;1.10;;
14975;SDS011;7584;60.468;25.126;2022-09-30T09:51:05;1.40;;;1.20;;
14975;SDS011;7584;60.468;25.126;2022-09-30T09:53:46;0.77;;;0.77;;
14975;SDS011;7584;60.468;25.126;2022-09-30T09:56:13;1.10;;;1.00;;
14975;SDS011;7584;60.468;25.126;2022-09-30T10:01:30;1.20;;;0.73;;
14975;SDS011;7584;60.468;25.126;2022-09-30T10:06:43;1.20;;;0.90;;
14975;SDS011;7584;60.468;25.126;2022-09-30T10:09:19;0.97;;;0.93;;
14975;SDS011;7584;60.468;25.126;2022-09-30T10:11:46;1.20;;;1.10;;
14975;SDS011;7584;60.468;25.126;2022-09-30T10:14:11;1.10;;;0.90;;
14975;SDS011;7584;60.468;25.126;2022-09-30T10:16:40;0.70;;;0.70;;
14975;SDS011;7584;60.468;25.126;2022-09-30T10:19:17;1.33;;;0.93;;
14975;SDS011;7584;60.468;25.126;2022-09-30T10:21:44;1.10;;;0.93;;
14975;SDS011;7584;60.468;25.126;2022-09-30T10:27:24;0.70;;;0.70;;
14975;SDS011;7584;60.468;25.126;2022-09-30T10:29:49;1.00;;;0.90;;
14975;SDS011;7584;60.468;25.126;2022-09-30T10:32:15;1.43;;;1.00;;
14975;SDS011;7584;60.468;25.126;2022-09-30T10:34:41;2.40;;;1.00;;
14975;SDS011;7584;60.468;25.126;2022-09-30T10:37:14;1.27;;;1.00;;
14975;SDS011;7584;60.468;25.126;2022-09-30T10:39:41;0.97;;;0.87;;
14975;SDS011;7584;60.468;25.126;2022-09-30T10:42:07;1.20;;;1.03;;
14975;SDS011;7584;60.468;25.126;2022-09-30T10:44:42;1.70;;;1.00;;
14975;SDS011;7584;60.468;25.126;2022-09-30T10:47:08;2.77;;;1.00;;
14975;SDS011;7584;60.468;25.126;2022-09-30T10:49:42;1.07;;;0.90;;
14975;SDS011;7584;60.468;25.126;2022-09-30T10:52:19;0.93;;;0.90;;
14975;SDS011;7584;60.468;25.126;2022-09-30T10:54:59;1.00;;;0.90;;
14975;SDS011;7584;60.468;25.126;2022-09-30T10:57:26;1.77;;;1.10;;
14975;SDS011;7584;60.468;25.126;2022-09-30T10:59:56;2.43;;;1.10;;
14975;SDS011;7584;60.468;25.126;2022-09-30T11:05:05;2.00;;;1.00;;
14975;SDS011;7584;60.468;25.126;2022-09-30T11:10:38;1.17;;;1.07;;
14975;SDS011;7584;60.468;25.126;2022-09-30T11:16:31;1.67;;;0.73;;
14975;SDS011;7584;60.468;25.126;2022-09-30T11:18:30;1.03;;;0.80;;
14975;SDS011;7584;60.468;25.126;2022-09-30T11:23:58;1.40;;;0.80;;
14975;SDS011;7584;60.468;25.126;2022-09-30T11:26:49;1.13;;;0.77;;
14975;SDS011;7584;60.468;25.126;2022-09-30T11:29:26;0.93;;;0.90;;
14975;SDS011;7584;60.468;25.126;2022-09-30T11:34:48;0.80;;;0.80;;
14975;SDS011;7584;60.468;25.126;2022-09-30T11:37:25;3.83;;;1.00;;
14975;SDS011;7584;60.468;25.126;2022-09-30T11:40:00;2.50;;;0.90;;
14975;SDS011;7584;60.468;25.126;2022-09-30T11:48:27;1.30;;;0.90;;
14975;SDS011;7584;60.468;25.126;2022-09-30T11:51:04;0.90;;;0.90;;
14975;SDS011;7584;60.468;25.126;2022-09-30T11:58:46;1.63;;;1.00;;
14975;SDS011;7584;60.468;25.126;2022-09-30T12:04:19;1.07;;;0.90;;
14975;SDS011;7584;60.468;25.126;2022-09-30T12:06:53;1.63;;;1.23;;
14975;SDS011;7584;60.468;25.126;2022-09-30T12:12:05;1.17;;;1.00;;
14975;SDS011;7584;60.468;25.126;2022-09-30T12:22:44;0.90;;;0.90;;
14975;SDS011;7584;60.468;25.126;2022-09-30T12:25:16;1.60;;;0.80;;
14975;SDS011;7584;60.468;25.126;2022-09-30T12:30:45;1.00;;;0.80;;
14975;SDS011;7584;60.468;25.126;2022-09-30T12:44:01;2.57;;;1.23;;
14975;SDS011;7584;60.468;25.126;2022-09-30T12:49:04;1.83;;;1.27;;
14975;SDS011;7584;60.468;25.126;2022-09-30T12:53:58;1.43;;;1.30;;
14975;SDS011;7584;60.468;25.126;2022-09-30T12:56:28;1.50;;;1.17;;
14975;SDS011;7584;60.468;25.126;2022-09-30T12:58:54;1.40;;;1.30;;
14975;SDS011;7584;60.468;25.126;2022-09-30T13:01:29;0.87;;;0.87;;
14975;SDS011;7584;60.468;25.126;2022-09-30T13:06:23;2.87;;;1.23;;
14975;SDS011;7584;60.468;25.126;2022-09-30T13:27:35;2.03;;;1.20;;
14975;SDS011;7584;60.468;25.126;2022-09-30T13:30:02;1.87;;;1.40;;
14975;SDS011;7584;60.468;25.126;2022-09-30T13:32:47;2.10;;;1.20;;
14975;SDS011;7584;60.468;25.126;2022-09-30T13:35:31;1.97;;;0.87;;
14975;SDS011;7584;60.468;25.126;2022-09-30T13:43:25;1.70;;;1.60;;
14975;SDS011;7584;60.468;25.126;2022-09-30T13:45:53;0.83;;;0.83;;
14975;SDS011;7584;60.468;25.126;2022-09-30T13:48:27;0.87;;;0.80;;
14975;SDS011;7584;60.468;25.126;2022-09-30T13:50:54;2.43;;;0.80;;
14975;SDS011;7584;60.468;25.126;2022-09-30T13:55:50;2.60;;;1.30;;
14975;SDS011;7584;60.468;25.126;2022-09-30T14:00:57;1.40;;;1.20;;
14975;SDS011;7584;60.468;25.126;2022-09-30T14:09:06;0.97;;;0.93;;
14975;SDS011;7584;60.468;25.126;2022-09-30T14:17:06;0.90;;;0.90;;
14975;SDS011;7584;60.468;25.126;2022-09-30T14:20:37;1.40;;;1.30;;
14975;SDS011;7584;60.468;25.126;2022-09-30T14:22:31;1.50;;;1.40;;
14975;SDS011;7584;60.468;25.126;2022-09-30T14:24:59;1.20;;;1.10;;
14975;SDS011;7584;60.468;25.126;2022-09-30T14:32:26;1.40;;;1.10;;
14975;SDS011;7584;60.468;25.126;2022-09-30T14:34:53;2.13;;;1.00;;
14975;SDS011;7584;60.468;25.126;2022-09-30T14:37:25;2.23;;;1.30;;
14975;SDS011;7584;60.468;25.126;2022-09-30T14:39:51;3.73;;;1.60;;
14975;SDS011;7584;60.468;25.126;2022-09-30T14:42:20;2.47;;;1.60;;
14975;SDS011;7584;60.468;25.126;2022-09-30T14:44:48;1.90;;;1.80;;
14975;SDS011;7584;60.468;25.126;2022-09-30T14:47:14;2.97;;;2.33;;
14975;SDS011;7584;60.468;25.126;2022-09-30T14:49:41;1.97;;;1.87;;
14975;SDS011;7584;60.468;25.126;2022-09-30T14:52:53;2.10;;;1.90;;
14975;SDS011;7584;60.468;25.126;2022-09-30T14:54:53;2.57;;;1.70;;
14975;SDS011;7584;60.468;25.126;2022-09-30T14:57:19;2.73;;;1.67;;
14975;SDS011;7584;60.468;25.126;2022-09-30T14:59:45;1.70;;;1.60;;
14975;SDS011;7584;60.468;25.126;2022-09-30T15:02:17;1.80;;;1.63;;
14975;SDS011;7584;60.468;25.126;2022-09-30T15:04:51;1.77;;;1.60;;
14975;SDS011;7584;60.468;25.126;2022-09-30T15:07:16;2.57;;;1.67;;
14975;SDS011;7584;60.468;25.126;2022-09-30T15:09:42;2.40;;;1.63;;
14975;SDS011;7584;60.468;25.126;2022-09-30T15:12:14;3.60;;;1.53;;
14975;SDS011;7584;60.468;25.126;2022-09-30T15:14:50;3.00;;;1.50;;
14975;SDS011;7584;60.468;25.126;2022-09-30T15:17:20;2.13;;;1.93;;
14975;SDS011;7584;60.468;25.126;2022-09-30T15:19:45;3.13;;;2.40;;
14975;SDS011;7584;60.468;25.126;2022-09-30T15:22:11;2.73;;;2.33;;
14975;SDS011;7584;60.468;25.126;2022-09-30T15:24:37;7.70;;;3.47;;
14975;SDS011;7584;60.468;25.126;2022-09-30T15:27:04;3.13;;;2.47;;
14975;SDS011;7584;60.468;25.126;2022-09-30T15:29:31;4.80;;;3.17;;
14975;SDS011;7584;60.468;25.126;2022-09-30T15:32:02;3.33;;;2.60;;
14975;SDS011;7584;60.468;25.126;2022-09-30T15:34:28;7.17;;;3.40;;
14975;SDS011;7584;60.468;25.126;2022-09-30T15:36:58;4.63;;;3.70;;
14975;SDS011;7584;60.468;25.126;2022-09-30T15:39:30;4.70;;;2.47;;
14975;SDS011;7584;60.468;25.126;2022-09-30T15:45:00;3.80;;;2.90;;
14975;SDS011;7584;60.468;25.126;2022-09-30T15:47:25;5.13;;;4.00;;
14975;SDS011;7584;60.468;25.126;2022-09-30T15:49:52;3.93;;;3.47;;
14975;SDS011;7584;60.468;25.126;2022-09-30T15:52:36;4.07;;;3.13;;
14975;SDS011;7584;60.468;25.126;2022-09-30T15:57:53;2.90;;;2.60;;
14975;SDS011;7584;60.468;25.126;2022-09-30T16:03:06;3.77;;;2.60;;
14975;SDS011;7584;60.468;25.126;2022-09-30T16:05:37;3.10;;;2.80;;
14975;SDS011;7584;60.468;25.126;2022-09-30T16:08:06;4.70;;;2.60;;
14975;SDS011;7584;60.468;25.126;2022-09-30T16:10:31;4.40;;;2.80;;
14975;SDS011;7584;60.468;25.126;2022-09-30T16:12:57;3.20;;;2.90;;
14975;SDS011;7584;60.468;25.126;2022-09-30T16:15:22;3.53;;;2.77;;
14975;SDS011;7584;60.468;25.126;2022-09-30T16:17:48;4.10;;;3.50;;
14975;SDS011;7584;60.468;25.126;2022-09-30T16:25:24;4.30;;;2.80;;
14975;SDS011;7584;60.468;25.126;2022-09-30T16:27:55;3.10;;;2.80;;
14975;SDS011;7584;60.468;25.126;2022-09-30T16:30:22;4.30;;;3.07;;
14975;SDS011;7584;60.468;25.126;2022-09-30T16:32:48;4.10;;;3.10;;
14975;SDS011;7584;60.468;25.126;2022-09-30T16:35:17;3.27;;;2.97;;
14975;SDS011;7584;60.468;25.126;2022-09-30T16:37:43;5.97;;;3.40;;
14975;SDS011;7584;60.468;25.126;2022-09-30T16:40:30;5.03;;;4.13;;
14975;SDS011;7584;60.468;25.126;2022-09-30T16:42:54;4.10;;;3.30;;
14975;SDS011;7584;60.468;25.126;2022-09-30T16:45:20;3.40;;;2.70;;
14975;SDS011;7584;60.468;25.126;2022-09-30T16:47:46;3.77;;;3.10;;
14975;SDS011;7584;60.468;25.126;2022-09-30T16:52:49;5.77;;;2.40;;
14975;SDS011;7584;60.468;25.126;2022-09-30T16:55:18;3.73;;;2.60;;
14975;SDS011;7584;60.468;25.126;2022-09-30T16:57:43;5.53;;;2.33;;
14975;SDS011;7584;60.468;25.126;2022-09-30T17:00:11;3.00;;;2.40;;
14975;SDS011;7584;60.468;25.126;2022-09-30T17:02:37;3.60;;;2.37;;
14975;SDS011;7584;60.468;25.126;2022-09-30T17:05:04;2.90;;;2.20;;
14975;SDS011;7584;60.468;25.126;2022-09-30T17:07:30;3.73;;;2.27;;
14975;SDS011;7584;60.468;25.126;2022-09-30T17:09:55;3.73;;;2.77;;
14975;SDS011;7584;60.468;25.126;2022-09-30T17:12:21;2.13;;;1.93;;
14975;SDS011;7584;60.468;25.126;2022-09-30T17:14:46;2.80;;;2.50;;
14975;SDS011;7584;60.468;25.126;2022-09-30T17:17:11;4.10;;;2.97;;
14975;SDS011;7584;60.468;25.126;2022-09-30T17:19:37;2.93;;;2.53;;
14975;SDS011;7584;60.468;25.126;2022-09-30T17:22:02;5.13;;;2.90;;
14975;SDS011;7584;60.468;25.126;2022-09-30T17:24:28;3.00;;;2.70;;
14975;SDS011;7584;60.468;25.126;2022-09-30T17:26:53;5.40;;;3.13;;
14975;SDS011;7584;60.468;25.126;2022-09-30T17:29:18;3.53;;;2.77;;
14975;SDS011;7584;60.468;25.126;2022-09-30T17:31:44;3.67;;;3.10;;
14975;SDS011;7584;60.468;25.126;2022-09-30T17:34:09;3.83;;;3.00;;
14975;SDS011;7584;60.468;25.126;2022-09-30T17:36:35;4.43;;;3.50;;
14975;SDS011;7584;60.468;25.126;2022-09-30T17:39:00;4.43;;;3.30;;
14975;SDS011;7584;60.468;25.126;2022-09-30T17:41:26;5.10;;;3.90;;
14975;SDS011;7584;60.468;25.126;2022-09-30T17:44:09;4.53;;;3.90;;
14975;SDS011;7584;60.468;25.126;2022-09-30T17:46:39;4.33;;;3.53;;
14975;SDS011;7584;60.468;25.126;2022-09-30T17:49:04;4.57;;;4.00;;
14975;SDS011;7584;60.468;25.126;2022-09-30T17:51:30;7.00;;;3.63;;
14975;SDS011;7584;60.468;25.126;2022-09-30T17:53:55;4.87;;;3.23;;
14975;SDS011;7584;60.468;25.126;2022-09-30T17:56:21;3.10;;;2.67;;
14975;SDS011;7584;60.468;25.126;2022-09-30T17:58:47;3.10;;;2.67;;
14975;SDS011;7584;60.468;25.126;2022-09-30T18:01:13;7.00;;;2.90;;
14975;SDS011;7584;60.468;25.126;2022-09-30T18:03:39;3.83;;;2.50;;
14975;SDS011;7584;60.468;25.126;2022-09-30T18:06:05;3.20;;;2.43;;
14975;SDS011;7584;60.468;25.126;2022-09-30T18:08:30;4.53;;;2.40;;
14975;SDS011;7584;60.468;25.126;2022-09-30T18:10:55;3.60;;;2.70;;
14975;SDS011;7584;60.468;25.126;2022-09-30T18:13:24;2.57;;;2.37;;
14975;SDS011;7584;60.468;25.126;2022-09-30T18:15:50;3.50;;;2.67;;
14975;SDS011;7584;60.468;25.126;2022-09-30T18:18:15;4.53;;;2.60;;
14975;SDS011;7584;60.468;25.126;2022-09-30T18:20:44;2.63;;;2.43;;
14975;SDS011;7584;60.468;25.126;2022-09-30T18:23:10;8.53;;;2.80;;
14975;SDS011;7584;60.468;25.126;2022-09-30T18:25:35;5.13;;;2.67;;
14975;SDS011;7584;60.468;25.126;2022-09-30T18:28:03;2.37;;;2.17;;
14975;SDS011;7584;60.468;25.126;2022-09-30T18:30:30;2.83;;;2.13;;
14975;SDS011;7584;60.468;25.126;2022-09-30T18:32:55;2.87;;;2.03;;
14975;SDS011;7584;60.468;25.126;2022-09-30T18:35:22;2.30;;;2.10;;
14975;SDS011;7584;60.468;25.126;2022-09-30T18:37:48;2.50;;;2.10;;